createdAt,value
2018-12-11T00:00:06.206Z,0
2018-12-11T00:01:18.510Z,0
2018-12-11T00:02:30.699Z,0
2018-12-11T00:03:42.832Z,0
2018-12-11T00:04:55.054Z,0
2018-12-11T00:06:07.223Z,0
2018-12-11T00:07:19.387Z,0
2018-12-11T00:08:31.584Z,0
2018-12-11T00:09:43.751Z,0
2018-12-11T00:10:56.050Z,0
2018-12-11T00:12:08.159Z,0
2018-12-11T00:13:20.357Z,0
2018-12-11T00:14:32.567Z,0
2018-12-11T00:15:44.765Z,0
2018-12-11T00:16:56.958Z,0
2018-12-11T00:18:09.056Z,0
2018-12-11T00:19:21.336Z,0
2018-12-11T00:20:33.630Z,0
2018-12-11T00:21:45.707Z,0
2018-12-11T00:22:57.970Z,0
2018-12-11T00:24:10.099Z,0
2018-12-11T00:25:22.221Z,0
2018-12-11T00:26:34.500Z,0
2018-12-11T00:27:46.604Z,0
2018-12-11T00:28:58.908Z,0
2018-12-11T00:30:10.989Z,0
2018-12-11T00:31:23.249Z,0
2018-12-11T00:32:35.459Z,0
2018-12-11T00:33:47.573Z,0
2018-12-11T00:34:59.918Z,0
2018-12-11T00:36:12.039Z,0
2018-12-11T00:37:24.247Z,0
2018-12-11T00:38:36.525Z,0
2018-12-11T00:39:48.700Z,0
2018-12-11T00:41:00.830Z,0
2018-12-11T00:42:13.021Z,0
2018-12-11T00:43:25.126Z,0
2018-12-11T00:44:37.401Z,0
2018-12-11T00:45:49.588Z,0
2018-12-11T00:47:05.264Z,0
2018-12-11T00:48:13.986Z,0
2018-12-11T00:49:26.276Z,0
2018-12-11T00:50:38.394Z,0
2018-12-11T00:51:50.641Z,0
2018-12-11T00:53:02.755Z,0
2018-12-11T00:54:15.139Z,0
2018-12-11T00:55:27.065Z,0
2018-12-11T00:56:39.321Z,0
2018-12-11T00:57:51.521Z,0
2018-12-11T00:59:03.719Z,0
2018-12-11T01:00:15.839Z,0
2018-12-11T01:01:28.100Z,0
2018-12-11T01:02:40.316Z,0
2018-12-11T01:03:52.596Z,0
2018-12-11T01:05:04.692Z,0
2018-12-11T01:06:16.890Z,0
2018-12-11T01:07:29.071Z,0
2018-12-11T01:08:41.288Z,0
2018-12-11T01:09:53.472Z,0
2018-12-11T01:11:05.659Z,0
2018-12-11T01:12:17.791Z,0
2018-12-11T01:13:30.459Z,0
2018-12-11T01:14:42.260Z,0
2018-12-11T01:15:54.540Z,0
2018-12-11T01:17:06.625Z,0
2018-12-11T01:18:18.837Z,0
2018-12-11T01:19:31.006Z,0
2018-12-11T01:20:43.173Z,0
2018-12-11T01:21:55.407Z,0
2018-12-11T01:23:07.597Z,0
2018-12-11T01:24:19.723Z,0
2018-12-11T01:25:31.903Z,0
2018-12-11T01:26:44.313Z,0
2018-12-11T01:27:56.302Z,0
2018-12-11T01:29:08.583Z,0
2018-12-11T01:30:20.689Z,0
2018-12-11T01:31:32.949Z,0
2018-12-11T01:32:45.106Z,0
2018-12-11T01:33:57.263Z,0
2018-12-11T01:35:09.552Z,0
2018-12-11T01:36:21.765Z,0
2018-12-11T01:37:34.012Z,0
2018-12-11T01:38:46.224Z,0
2018-12-11T01:39:58.236Z,0
2018-12-11T01:41:10.505Z,0
2018-12-11T01:42:22.703Z,0
2018-12-11T01:43:34.886Z,0
2018-12-11T01:44:47.381Z,0
2018-12-11T01:45:59.290Z,0
2018-12-11T01:47:11.473Z,0
2018-12-11T01:48:23.661Z,0
2018-12-11T01:49:35.793Z,0
2018-12-11T01:50:48.082Z,0
2018-12-11T01:52:00.359Z,0
2018-12-11T01:53:12.373Z,0
2018-12-11T01:54:24.564Z,0
2018-12-11T01:55:36.825Z,0
2018-12-11T01:56:48.948Z,0
2018-12-11T01:58:01.214Z,0
2018-12-11T01:59:13.435Z,0
2018-12-11T02:00:25.708Z,0
2018-12-11T02:01:37.780Z,0
2018-12-11T02:02:50.115Z,0
2018-12-11T02:04:02.151Z,0
2018-12-11T02:05:14.340Z,0
2018-12-11T02:06:26.604Z,0
2018-12-11T02:07:38.696Z,0
2018-12-11T02:08:50.993Z,0
2018-12-11T02:10:03.179Z,0
2018-12-11T02:11:15.377Z,0
2018-12-11T02:12:27.468Z,0
2018-12-11T02:13:39.837Z,0
2018-12-11T02:14:52.012Z,0
2018-12-11T02:16:05.408Z,0
2018-12-11T02:17:16.385Z,0
2018-12-11T02:18:28.619Z,0
2018-12-11T02:19:40.893Z,0
2018-12-11T02:20:52.885Z,0
2018-12-11T02:22:05.087Z,0
2018-12-11T02:23:17.299Z,0
2018-12-11T02:24:29.512Z,0
2018-12-11T02:25:41.826Z,0
2018-12-11T02:26:53.974Z,0
2018-12-11T02:28:06.132Z,0
2018-12-11T02:29:18.241Z,0
2018-12-11T02:30:30.539Z,0
2018-12-11T02:31:42.664Z,0
2018-12-11T02:32:54.859Z,0
2018-12-11T02:34:07.030Z,0
2018-12-11T02:35:19.171Z,0
2018-12-11T02:36:31.437Z,0
2018-12-11T02:37:43.706Z,0
2018-12-11T02:38:55.880Z,0
2018-12-11T02:40:08.112Z,0
2018-12-11T02:41:20.138Z,0
2018-12-11T02:42:32.487Z,0
2018-12-11T02:43:44.517Z,0
2018-12-11T02:44:56.838Z,0
2018-12-11T02:46:08.899Z,0
2018-12-11T02:47:21.202Z,0
2018-12-11T02:48:33.372Z,0
2018-12-11T02:49:45.558Z,0
2018-12-11T02:50:57.846Z,0
2018-12-11T02:52:10.045Z,0
2018-12-11T02:53:22.071Z,0
2018-12-11T02:54:34.335Z,0
2018-12-11T02:55:46.484Z,0
2018-12-11T02:56:58.758Z,0
2018-12-11T02:58:10.948Z,0
2018-12-11T02:59:23.074Z,0
2018-12-11T03:00:35.255Z,0
2018-12-11T03:01:47.514Z,0
2018-12-11T03:02:59.805Z,0
2018-12-11T03:04:11.979Z,0
2018-12-11T03:05:24.099Z,0
2018-12-11T03:06:36.223Z,0
2018-12-11T03:07:48.506Z,0
2018-12-11T03:09:00.677Z,0
2018-12-11T03:10:12.891Z,0
2018-12-11T03:11:25.099Z,0
2018-12-11T03:12:37.206Z,0
2018-12-11T03:13:49.470Z,0
2018-12-11T03:15:01.865Z,0
2018-12-11T03:16:13.782Z,0
2018-12-11T03:17:25.976Z,0
2018-12-11T03:18:38.237Z,0
2018-12-11T03:19:50.484Z,0
2018-12-11T03:21:02.709Z,0
2018-12-11T03:22:14.764Z,0
2018-12-11T03:23:26.953Z,0
2018-12-11T03:24:39.228Z,0
2018-12-11T03:25:51.440Z,0
2018-12-11T03:27:03.700Z,0
2018-12-11T03:28:15.753Z,0
2018-12-11T03:29:27.997Z,0
2018-12-11T03:30:40.220Z,0
2018-12-11T03:31:52.348Z,0
2018-12-11T03:33:04.695Z,0
2018-12-11T03:34:16.788Z,0
2018-12-11T03:35:28.980Z,0
2018-12-11T03:36:41.329Z,0
2018-12-11T03:37:53.469Z,0
2018-12-11T03:39:05.589Z,0
2018-12-11T03:40:17.772Z,0
2018-12-11T03:41:29.973Z,0
2018-12-11T03:42:42.242Z,0
2018-12-11T03:43:54.385Z,0
2018-12-11T03:45:06.645Z,0
2018-12-11T03:46:18.749Z,0
2018-12-11T03:47:31.036Z,0
2018-12-11T03:48:43.142Z,0
2018-12-11T03:49:55.428Z,0
2018-12-11T03:51:07.632Z,0
2018-12-11T03:52:19.837Z,0
2018-12-11T03:53:31.933Z,0
2018-12-11T03:54:44.210Z,0
2018-12-11T03:55:56.320Z,0
2018-12-11T03:57:08.597Z,0
2018-12-11T03:58:20.652Z,0
2018-12-11T03:59:32.886Z,0
2018-12-11T04:00:45.153Z,0
2018-12-11T04:01:57.362Z,0
2018-12-11T04:03:09.572Z,0
2018-12-11T04:04:21.772Z,0
2018-12-11T04:05:33.906Z,0
2018-12-11T04:06:46.153Z,0
2018-12-11T04:07:58.259Z,0
2018-12-11T04:09:10.417Z,0
2018-12-11T04:10:22.657Z,0
2018-12-11T04:11:34.868Z,0
2018-12-11T04:12:50.083Z,0
2018-12-11T04:13:59.268Z,0
2018-12-11T04:15:11.532Z,0
2018-12-11T04:16:23.559Z,0
2018-12-11T04:17:35.755Z,0
2018-12-11T04:18:48.048Z,0
2018-12-11T04:20:00.156Z,0
2018-12-11T04:21:12.452Z,0
2018-12-11T04:22:24.553Z,0
2018-12-11T04:23:36.733Z,0
2018-12-11T04:24:49.002Z,0
2018-12-11T04:26:01.122Z,0
2018-12-11T04:27:13.489Z,0
2018-12-11T04:28:25.620Z,0
2018-12-11T04:29:37.805Z,0
2018-12-11T04:30:49.986Z,0
2018-12-11T04:32:02.170Z,0
2018-12-11T04:33:14.389Z,0
2018-12-11T04:34:26.495Z,0
2018-12-11T04:35:38.782Z,0
2018-12-11T04:36:50.884Z,0
2018-12-11T04:38:03.184Z,0
2018-12-11T04:39:15.384Z,0
2018-12-11T04:40:27.547Z,0
2018-12-11T04:41:39.761Z,0
2018-12-11T04:42:51.858Z,0
2018-12-11T04:44:04.952Z,0
2018-12-11T04:45:16.340Z,0
2018-12-11T04:46:28.542Z,0
2018-12-11T04:47:40.778Z,0
2018-12-11T04:48:52.841Z,0
2018-12-11T04:50:05.118Z,0
2018-12-11T04:51:17.400Z,0
2018-12-11T04:52:29.505Z,0
2018-12-11T04:53:41.620Z,0
2018-12-11T04:54:53.890Z,0
2018-12-11T04:56:06.088Z,0
2018-12-11T04:57:18.281Z,0
2018-12-11T04:58:30.474Z,0
2018-12-11T04:59:42.600Z,0
2018-12-11T05:00:54.867Z,0
2018-12-11T05:02:07.065Z,0
2018-12-11T05:03:19.271Z,0
2018-12-11T05:04:31.374Z,0
2018-12-11T05:05:43.665Z,0
2018-12-11T05:06:55.770Z,0
2018-12-11T05:08:07.977Z,0
2018-12-11T05:09:20.198Z,0
2018-12-11T05:10:32.374Z,0
2018-12-11T05:11:44.577Z,0
2018-12-11T05:12:56.848Z,0
2018-12-11T05:14:09.121Z,0
2018-12-11T05:15:21.337Z,0
2018-12-11T05:16:33.402Z,0
2018-12-11T05:17:45.551Z,0
2018-12-11T05:18:57.793Z,0
2018-12-11T05:20:09.914Z,0
2018-12-11T05:21:22.227Z,0
2018-12-11T05:22:34.379Z,0
2018-12-11T05:23:46.580Z,0
2018-12-11T05:24:58.783Z,0
2018-12-11T05:26:10.969Z,0
2018-12-11T05:27:23.182Z,0
2018-12-11T05:28:35.451Z,0
2018-12-11T05:29:47.495Z,0
2018-12-11T05:30:59.747Z,0
2018-12-11T05:32:11.983Z,0
2018-12-11T05:33:24.241Z,0
2018-12-11T05:34:36.268Z,0
2018-12-11T05:35:48.647Z,0
2018-12-11T05:37:00.764Z,0
2018-12-11T05:38:12.917Z,0
2018-12-11T05:39:25.143Z,0
2018-12-11T05:40:37.241Z,0
2018-12-11T05:41:49.448Z,0
2018-12-11T05:43:01.762Z,0
2018-12-11T05:44:13.924Z,0
2018-12-11T05:45:26.143Z,0
2018-12-11T05:46:38.226Z,0
2018-12-11T05:47:50.445Z,0
2018-12-11T05:49:02.706Z,0
2018-12-11T05:50:14.960Z,0
2018-12-11T05:51:27.188Z,0
2018-12-11T05:52:39.307Z,0
2018-12-11T05:53:51.481Z,0
2018-12-11T05:55:03.772Z,0
2018-12-11T05:56:15.780Z,0
2018-12-11T05:57:28.165Z,0
2018-12-11T05:58:40.299Z,0
2018-12-11T05:59:52.537Z,0
2018-12-11T06:01:04.561Z,0
2018-12-11T06:02:16.931Z,0
2018-12-11T06:03:29.123Z,0
2018-12-11T06:04:41.319Z,0
2018-12-11T06:05:53.359Z,0
2018-12-11T06:07:05.542Z,0
2018-12-11T06:08:17.739Z,0
2018-12-11T06:09:29.931Z,0
2018-12-11T06:10:42.240Z,0
2018-12-11T06:11:54.503Z,0
2018-12-11T06:13:06.538Z,0
2018-12-11T06:14:18.793Z,0
2018-12-11T06:15:32.345Z,0
2018-12-11T06:16:43.187Z,0
2018-12-11T06:17:55.389Z,0
2018-12-11T06:19:07.581Z,0
2018-12-11T06:20:19.701Z,0
2018-12-11T06:21:31.967Z,0
2018-12-11T06:22:44.269Z,0
2018-12-11T06:23:56.445Z,0
2018-12-11T06:25:08.485Z,0
2018-12-11T06:26:20.851Z,0
2018-12-11T06:27:33.037Z,0
2018-12-11T06:28:45.144Z,0
2018-12-11T06:29:57.300Z,0
2018-12-11T06:31:09.525Z,0
2018-12-11T06:32:21.736Z,0
2018-12-11T06:33:34.037Z,0
2018-12-11T06:34:46.112Z,0
2018-12-11T06:35:58.322Z,0
2018-12-11T06:37:10.443Z,0
2018-12-11T06:38:22.640Z,0
2018-12-11T06:39:34.920Z,0
2018-12-11T06:40:50.136Z,0
2018-12-11T06:41:59.303Z,0
2018-12-11T06:43:11.504Z,0
2018-12-11T06:44:23.682Z,0
2018-12-11T06:45:35.805Z,0
2018-12-11T06:46:48.026Z,0
2018-12-11T06:48:00.290Z,4
2018-12-11T06:49:12.478Z,0
2018-12-11T06:50:24.589Z,4
2018-12-11T06:51:36.946Z,4
2018-12-11T06:52:49.044Z,8
2018-12-11T06:54:01.170Z,8
2018-12-11T06:55:13.453Z,8
2018-12-11T06:56:25.777Z,8
2018-12-11T06:57:37.845Z,8
2018-12-11T06:58:50.041Z,12
2018-12-11T07:00:02.423Z,12
2018-12-11T07:01:14.433Z,16
2018-12-11T07:02:26.783Z,20
2018-12-11T07:03:38.850Z,20
2018-12-11T07:04:51.048Z,24
2018-12-11T07:06:03.226Z,28
2018-12-11T07:07:15.396Z,32
2018-12-11T07:08:27.610Z,40
2018-12-11T07:09:39.872Z,44
2018-12-11T07:10:52.027Z,40
2018-12-11T07:12:05.108Z,52
2018-12-11T07:13:16.315Z,60
2018-12-11T07:14:28.574Z,60
2018-12-11T07:15:40.854Z,68
2018-12-11T07:16:53.055Z,76
2018-12-11T07:18:05.077Z,84
2018-12-11T07:19:17.280Z,100
2018-12-11T07:20:29.548Z,108
2018-12-11T07:21:41.726Z,112
2018-12-11T07:22:53.870Z,124
2018-12-11T07:24:06.060Z,136
2018-12-11T07:25:18.258Z,156
2018-12-11T07:26:30.534Z,160
2018-12-11T07:27:42.828Z,164
2018-12-11T07:28:54.936Z,180
2018-12-11T07:30:07.126Z,220
2018-12-11T07:31:19.326Z,244
2018-12-11T07:32:31.520Z,276
2018-12-11T07:33:43.688Z,304
2018-12-11T07:34:55.871Z,320
2018-12-11T07:36:08.109Z,328
2018-12-11T07:37:20.297Z,356
2018-12-11T07:38:32.585Z,396
2018-12-11T07:39:44.702Z,416
2018-12-11T07:40:56.842Z,448
2018-12-11T07:42:09.068Z,480
2018-12-11T07:43:21.273Z,484
2018-12-11T07:44:33.441Z,508
2018-12-11T07:45:47.258Z,512
2018-12-11T07:46:57.868Z,552
2018-12-11T07:48:10.058Z,600
2018-12-11T07:49:22.245Z,636
2018-12-11T07:50:34.511Z,644
2018-12-11T07:51:46.736Z,672
2018-12-11T07:52:58.843Z,744
2018-12-11T07:54:11.206Z,760
2018-12-11T07:55:23.157Z,792
2018-12-11T07:56:35.426Z,868
2018-12-11T07:57:47.540Z,940
2018-12-11T07:58:59.818Z,1036
2018-12-11T08:00:12.353Z,1116
2018-12-11T08:01:24.217Z,1180
2018-12-11T08:02:36.398Z,1248
2018-12-11T08:03:48.624Z,1316
2018-12-11T08:05:00.800Z,1372
2018-12-11T08:06:12.914Z,1436
2018-12-11T08:07:25.232Z,1504
2018-12-11T08:08:37.540Z,1584
2018-12-11T08:09:49.594Z,1664
2018-12-11T08:11:01.774Z,1760
2018-12-11T08:12:14.069Z,1880
2018-12-11T08:13:26.093Z,2028
2018-12-11T08:14:38.356Z,2212
2018-12-11T08:15:50.581Z,2944
2018-12-11T08:17:02.736Z,7840
2018-12-11T08:18:14.996Z,7880
2018-12-11T08:19:27.091Z,8624
2018-12-11T08:20:39.285Z,8040
2018-12-11T08:21:51.451Z,8048
2018-12-11T08:23:03.647Z,9092
2018-12-11T08:24:15.847Z,9508
2018-12-11T08:25:28.046Z,8616
2018-12-11T08:26:40.236Z,3256
2018-12-11T08:27:52.532Z,3104
2018-12-11T08:29:04.730Z,3164
2018-12-11T08:30:16.910Z,3220
2018-12-11T08:31:29.052Z,3364
2018-12-11T08:32:41.290Z,3548
2018-12-11T08:33:53.420Z,3840
2018-12-11T08:35:06.214Z,3396
2018-12-11T08:36:17.966Z,3372
2018-12-11T08:37:29.998Z,3624
2018-12-11T08:38:42.272Z,3744
2018-12-11T08:39:54.555Z,3820
2018-12-11T08:41:06.640Z,3672
2018-12-11T08:42:18.784Z,3556
2018-12-11T08:43:31.148Z,3472
2018-12-11T08:44:43.284Z,3364
2018-12-11T08:45:55.373Z,3532
2018-12-11T08:47:07.586Z,3832
2018-12-11T08:48:19.835Z,4280
2018-12-11T08:49:32.041Z,4264
2018-12-11T08:50:44.231Z,4308
2018-12-11T08:51:56.437Z,4208
2018-12-11T08:53:08.644Z,4048
2018-12-11T08:54:20.816Z,3872
2018-12-11T08:55:33.003Z,4000
2018-12-11T08:56:45.206Z,4856
2018-12-11T08:57:57.330Z,4988
2018-12-11T08:59:09.629Z,3824
2018-12-11T09:00:21.851Z,3360
2018-12-11T09:01:33.914Z,3336
2018-12-11T09:02:46.111Z,3400
2018-12-11T09:03:58.491Z,3584
2018-12-11T09:05:10.768Z,4204
2018-12-11T09:06:22.767Z,5676
2018-12-11T09:07:34.930Z,7180
2018-12-11T09:08:47.169Z,8188
2018-12-11T09:09:59.443Z,9228
2018-12-11T09:11:11.571Z,18592
2018-12-11T09:12:26.307Z,18496
2018-12-11T09:13:35.957Z,15680
2018-12-11T09:14:48.067Z,19008
2018-12-11T09:16:00.434Z,18432
2018-12-11T09:17:12.622Z,19136
2018-12-11T09:18:24.656Z,9624
2018-12-11T09:19:36.936Z,7476
2018-12-11T09:20:49.146Z,7028
2018-12-11T09:22:01.236Z,6472
2018-12-11T09:23:13.513Z,6244
2018-12-11T09:24:25.750Z,6320
2018-12-11T09:25:37.902Z,6616
2018-12-11T09:26:50.178Z,6356
2018-12-11T09:28:02.310Z,6084
2018-12-11T09:29:14.603Z,6308
2018-12-11T09:30:26.606Z,5932
2018-12-11T09:31:38.884Z,5840
2018-12-11T09:32:50.993Z,5288
2018-12-11T09:34:03.361Z,5512
2018-12-11T09:35:15.458Z,6000
2018-12-11T09:36:27.673Z,5544
2018-12-11T09:37:39.778Z,4764
2018-12-11T09:38:52.069Z,4492
2018-12-11T09:40:04.327Z,4632
2018-12-11T09:41:16.518Z,5768
2018-12-11T09:42:28.563Z,5420
2018-12-11T09:43:40.787Z,4220
2018-12-11T09:44:53.021Z,2976
2018-12-11T09:46:05.313Z,2268
2018-12-11T09:47:17.448Z,2340
2018-12-11T09:48:29.713Z,2188
2018-12-11T09:49:41.877Z,2268
2018-12-11T09:50:54.088Z,2152
2018-12-11T09:52:06.293Z,2152
2018-12-11T09:53:18.484Z,2336
2018-12-11T09:54:30.644Z,2348
2018-12-11T09:55:44.121Z,2792
2018-12-11T09:56:55.049Z,3736
2018-12-11T09:58:07.173Z,4152
2018-12-11T09:59:19.314Z,3648
2018-12-11T10:00:31.504Z,2692
2018-12-11T10:01:43.686Z,2240
2018-12-11T10:02:55.967Z,1848
2018-12-11T10:04:08.295Z,1912
2018-12-11T10:05:20.361Z,2584
2018-12-11T10:06:32.494Z,3204
2018-12-11T10:07:44.732Z,4092
2018-12-11T10:08:57.076Z,4988
2018-12-11T10:10:09.148Z,4796
2018-12-11T10:11:21.350Z,4640
2018-12-11T10:12:33.541Z,4548
2018-12-11T10:13:45.657Z,4124
2018-12-11T10:14:57.968Z,3932
2018-12-11T10:16:10.201Z,3992
2018-12-11T10:17:23.128Z,3916
2018-12-11T10:18:34.522Z,4296
2018-12-11T10:19:46.725Z,4176
2018-12-11T10:20:58.884Z,4008
2018-12-11T10:22:11.084Z,3588
2018-12-11T10:23:23.282Z,3420
2018-12-11T10:24:35.605Z,4344
2018-12-11T10:25:47.685Z,5328
2018-12-11T10:26:59.877Z,5052
2018-12-11T10:28:12.168Z,3940
2018-12-11T10:29:24.189Z,3472
2018-12-11T10:30:36.551Z,4668
2018-12-11T10:31:48.729Z,4080
2018-12-11T10:33:00.842Z,3536
2018-12-11T10:34:12.981Z,2652
2018-12-11T10:35:25.238Z,2100
2018-12-11T10:36:37.441Z,2164
2018-12-11T10:37:49.626Z,2324
2018-12-11T10:39:01.908Z,2364
2018-12-11T10:40:14.163Z,2444
2018-12-11T10:41:26.145Z,2764
2018-12-11T10:42:38.371Z,3088
2018-12-11T10:43:50.599Z,3124
2018-12-11T10:45:02.788Z,3204
2018-12-11T10:46:15.065Z,3168
2018-12-11T10:47:27.117Z,3100
2018-12-11T10:48:39.409Z,3112
2018-12-11T10:49:51.586Z,3340
2018-12-11T10:51:03.699Z,4284
2018-12-11T10:52:16.105Z,10108
2018-12-11T10:53:28.173Z,12876
2018-12-11T10:54:40.394Z,12844
2018-12-11T10:55:52.568Z,19744
2018-12-11T10:57:04.707Z,7020
2018-12-11T10:59:29.331Z,6728
2018-12-11T11:00:41.352Z,5984
2018-12-11T11:01:53.540Z,7132
2018-12-11T11:03:05.665Z,7260
2018-12-11T11:04:17.946Z,7796
2018-12-11T11:05:30.117Z,7620
2018-12-11T11:06:42.329Z,6448
2018-12-11T11:07:54.500Z,5104
2018-12-11T11:09:06.712Z,4840
2018-12-11T11:10:18.923Z,4788
2018-12-11T11:11:31.019Z,4864
2018-12-11T11:12:43.238Z,5264
2018-12-11T11:15:07.712Z,6688
2018-12-11T11:16:20.206Z,7712
2018-12-11T11:17:32.116Z,8224
2018-12-11T11:18:44.285Z,8372
2018-12-11T11:19:56.476Z,7884
2018-12-11T11:21:08.595Z,7036
2018-12-11T11:22:20.951Z,6304
2018-12-11T11:23:32.979Z,5756
2018-12-11T11:24:45.252Z,5520
2018-12-11T11:25:57.398Z,5352
2018-12-11T11:27:09.569Z,5452
2018-12-11T11:28:21.919Z,6156
2018-12-11T11:29:34.136Z,8976
2018-12-11T11:30:46.216Z,18464
2018-12-11T11:31:58.355Z,18432
2018-12-11T11:33:10.655Z,17696
2018-12-11T11:34:23.288Z,11496
2018-12-11T11:35:35.023Z,8932
2018-12-11T11:36:47.231Z,8672
2018-12-11T11:37:59.325Z,8452
2018-12-11T11:39:11.589Z,8284
2018-12-11T11:40:23.803Z,7952
2018-12-11T11:41:35.984Z,7612
2018-12-11T11:42:50.913Z,7296
2018-12-11T11:44:00.396Z,7152
2018-12-11T11:45:12.597Z,7212
2018-12-11T11:46:24.803Z,8240
2018-12-11T11:47:36.881Z,9680
2018-12-11T11:48:49.249Z,10044
2018-12-11T11:50:01.276Z,10444
2018-12-11T11:51:13.538Z,11684
2018-12-11T11:52:25.853Z,12800
2018-12-11T11:53:37.936Z,13420
2018-12-11T11:54:50.131Z,13536
2018-12-11T11:56:05.188Z,12492
2018-12-11T11:57:14.450Z,10632
2018-12-11T11:58:26.812Z,8404
2018-12-11T11:59:38.876Z,6464
2018-12-11T12:00:51.128Z,5128
2018-12-11T12:02:03.302Z,4968
2018-12-11T12:03:15.465Z,4552
2018-12-11T12:04:27.709Z,4532
2018-12-11T12:05:39.914Z,4660
2018-12-11T12:06:52.013Z,4860
2018-12-11T12:08:04.338Z,4896
2018-12-11T12:09:16.402Z,4568
2018-12-11T12:10:28.615Z,4388
2018-12-11T12:11:40.791Z,4168
2018-12-11T12:12:53.085Z,3820
2018-12-11T12:14:05.183Z,3464
2018-12-11T12:15:17.460Z,2772
2018-12-11T12:16:29.663Z,2572
2018-12-11T12:17:41.783Z,2684
2018-12-11T12:18:53.952Z,3304
2018-12-11T12:20:06.254Z,3812
2018-12-11T12:21:18.415Z,3732
2018-12-11T12:22:30.568Z,3472
2018-12-11T12:23:42.734Z,3144
2018-12-11T12:24:54.993Z,3440
2018-12-11T12:26:07.137Z,3592
2018-12-11T12:27:19.315Z,3820
2018-12-11T12:28:31.690Z,4648
2018-12-11T12:29:43.736Z,4756
2018-12-11T12:30:55.944Z,4376
2018-12-11T12:32:08.200Z,3128
2018-12-11T12:33:20.316Z,2652
2018-12-11T12:34:32.573Z,2648
2018-12-11T12:35:44.666Z,2888
2018-12-11T12:36:56.969Z,2824
2018-12-11T12:38:09.134Z,3076
2018-12-11T12:39:21.250Z,3432
2018-12-11T12:40:33.619Z,3704
2018-12-11T12:41:45.761Z,4020
2018-12-11T12:42:57.895Z,4428
2018-12-11T12:44:10.025Z,4940
2018-12-11T12:45:22.219Z,4944
2018-12-11T12:46:34.585Z,5296
2018-12-11T12:47:46.689Z,5528
2018-12-11T12:48:58.876Z,6088
2018-12-11T12:50:11.082Z,6116
2018-12-11T12:51:23.259Z,5684
2018-12-11T12:52:35.561Z,5476
2018-12-11T12:53:47.647Z,4988
2018-12-11T12:54:59.851Z,4944
2018-12-11T12:56:12.999Z,5108
2018-12-11T12:57:24.252Z,5340
2018-12-11T12:58:36.445Z,5136
2018-12-11T12:59:48.680Z,4460
2018-12-11T13:01:00.849Z,3688
2018-12-11T13:02:12.929Z,3468
2018-12-11T13:03:25.208Z,3152
2018-12-11T13:04:37.541Z,2328
2018-12-11T13:05:49.512Z,2040
2018-12-11T13:07:01.796Z,1544
2018-12-11T13:08:13.914Z,1308
2018-12-11T13:09:26.221Z,1068
2018-12-11T13:10:38.433Z,948
2018-12-11T13:11:50.569Z,948
2018-12-11T13:13:02.677Z,968
2018-12-11T13:14:14.909Z,980
2018-12-11T13:15:27.083Z,972
2018-12-11T13:16:39.417Z,1060
2018-12-11T13:17:51.534Z,964
2018-12-11T13:19:03.656Z,1076
2018-12-11T13:20:16.007Z,1336
2018-12-11T13:21:28.214Z,1388
2018-12-11T13:22:40.335Z,1080
2018-12-11T13:23:52.417Z,996
2018-12-11T13:25:04.695Z,1312
2018-12-11T13:26:16.879Z,1944
2018-12-11T13:27:29.084Z,2524
2018-12-11T13:28:41.363Z,2988
2018-12-11T13:29:53.389Z,3472
2018-12-11T13:31:05.626Z,3868
2018-12-11T13:32:17.779Z,3824
2018-12-11T13:33:30.043Z,3740
2018-12-11T13:34:42.189Z,3716
2018-12-11T13:35:54.547Z,4052
2018-12-11T13:37:06.578Z,3956
2018-12-11T13:38:18.818Z,4144
2018-12-11T13:39:31.021Z,4104
2018-12-11T13:40:43.309Z,3764
2018-12-11T13:41:55.482Z,3404
2018-12-11T13:43:07.622Z,2384
2018-12-11T13:44:19.786Z,2408
2018-12-11T13:45:31.995Z,2540
2018-12-11T13:46:44.131Z,2220
2018-12-11T13:47:56.295Z,2528
2018-12-11T13:49:08.486Z,3400
2018-12-11T13:50:20.755Z,3568
2018-12-11T13:51:32.988Z,3216
2018-12-11T13:52:45.250Z,2976
2018-12-11T13:53:57.272Z,2772
2018-12-11T13:55:09.538Z,2436
2018-12-11T13:56:21.745Z,2416
2018-12-11T13:57:33.918Z,2092
2018-12-11T13:58:46.056Z,1580
2018-12-11T13:59:58.234Z,2032
2018-12-11T14:01:14.193Z,2072
2018-12-11T14:02:23.677Z,2052
2018-12-11T14:03:34.941Z,1956
2018-12-11T14:04:47.187Z,1848
2018-12-11T14:05:59.291Z,1896
2018-12-11T14:07:11.464Z,1796
2018-12-11T14:08:23.586Z,1744
2018-12-11T14:09:35.788Z,1584
2018-12-11T14:10:48.076Z,1392
2018-12-11T14:12:00.246Z,1144
2018-12-11T14:13:12.384Z,1044
2018-12-11T14:14:24.672Z,1072
2018-12-11T14:15:36.783Z,1096
2018-12-11T14:16:49.112Z,1092
2018-12-11T14:18:01.398Z,1088
2018-12-11T14:19:13.414Z,1108
2018-12-11T14:20:25.704Z,1116
2018-12-11T14:21:37.793Z,1132
2018-12-11T14:22:50.056Z,1156
2018-12-11T14:24:02.234Z,1212
2018-12-11T14:25:14.377Z,1324
2018-12-11T14:26:26.572Z,1552
2018-12-11T14:27:38.701Z,1572
2018-12-11T14:28:51.053Z,1828
2018-12-11T14:30:03.187Z,1860
2018-12-11T14:31:15.361Z,1840
2018-12-11T14:32:27.542Z,1692
2018-12-11T14:33:39.691Z,1500
2018-12-11T14:34:51.948Z,1328
2018-12-11T14:36:04.047Z,1116
2018-12-11T14:37:16.318Z,1008
2018-12-11T14:38:28.498Z,944
2018-12-11T14:39:40.769Z,928
2018-12-11T14:40:52.985Z,920
2018-12-11T14:42:05.090Z,916
2018-12-11T14:43:17.215Z,908
2018-12-11T14:44:29.552Z,900
2018-12-11T14:45:41.662Z,888
2018-12-11T14:46:53.785Z,876
2018-12-11T14:48:06.078Z,864
2018-12-11T14:49:18.359Z,844
2018-12-11T14:50:30.451Z,828
2018-12-11T14:51:42.633Z,808
2018-12-11T14:52:54.936Z,792
2018-12-11T14:54:07.126Z,792
2018-12-11T14:55:19.219Z,780
2018-12-11T14:56:31.517Z,756
2018-12-11T14:57:43.535Z,740
2018-12-11T14:58:55.895Z,732
2018-12-11T15:00:07.960Z,716
2018-12-11T15:01:20.191Z,684
2018-12-11T15:02:32.314Z,672
2018-12-11T15:03:44.569Z,668
2018-12-11T15:04:57.006Z,640
2018-12-11T15:06:08.971Z,596
2018-12-11T15:07:21.156Z,560
2018-12-11T15:08:33.397Z,528
2018-12-11T15:09:45.542Z,468
2018-12-11T15:10:57.834Z,432
2018-12-11T15:12:09.941Z,416
2018-12-11T15:13:22.058Z,392
2018-12-11T15:14:34.361Z,356
2018-12-11T15:15:46.522Z,332
2018-12-11T15:16:58.728Z,300
2018-12-11T15:18:10.958Z,280
2018-12-11T15:19:24.240Z,264
2018-12-11T15:20:35.367Z,244
2018-12-11T15:21:47.413Z,224
2018-12-11T15:22:59.726Z,204
2018-12-11T15:24:11.901Z,188
2018-12-11T15:25:24.062Z,168
2018-12-11T15:26:36.227Z,152
2018-12-11T15:27:48.440Z,144
2018-12-11T15:29:00.779Z,128
2018-12-11T15:30:12.854Z,116
2018-12-11T15:31:25.041Z,108
2018-12-11T15:32:37.227Z,96
2018-12-11T15:33:49.431Z,80
2018-12-11T15:35:01.642Z,72
2018-12-11T15:36:13.855Z,64
2018-12-11T15:37:25.937Z,56
2018-12-11T15:38:38.232Z,48
2018-12-11T15:39:50.321Z,44
2018-12-11T15:41:02.678Z,32
2018-12-11T15:42:14.886Z,28
2018-12-11T15:43:27.005Z,20
2018-12-11T15:44:39.283Z,20
2018-12-11T15:45:51.359Z,16
2018-12-11T15:47:03.630Z,16
2018-12-11T15:48:15.692Z,12
2018-12-11T15:49:28.037Z,8
2018-12-11T15:50:40.083Z,8
2018-12-11T15:51:52.369Z,8
2018-12-11T15:53:04.554Z,4
2018-12-11T15:54:16.724Z,4
2018-12-11T15:55:31.892Z,4
2018-12-11T15:56:41.108Z,4
2018-12-11T15:57:53.408Z,4
2018-12-11T15:59:05.424Z,4
2018-12-11T16:00:17.684Z,0
2018-12-11T16:01:29.911Z,0
2018-12-11T16:02:42.295Z,0
2018-12-11T16:03:54.190Z,0
2018-12-11T16:05:06.524Z,0
2018-12-11T16:06:18.677Z,0
2018-12-11T16:07:30.852Z,0
2018-12-11T16:08:43.128Z,0
2018-12-11T16:09:55.157Z,0
2018-12-11T16:11:07.370Z,0
2018-12-11T16:12:19.558Z,0
2018-12-11T16:13:31.742Z,0
2018-12-11T16:14:44.020Z,0
2018-12-11T16:15:56.142Z,0
2018-12-11T16:17:08.427Z,0
2018-12-11T16:18:20.606Z,0
2018-12-11T16:19:32.782Z,0
2018-12-11T16:20:44.911Z,0
2018-12-11T16:21:57.097Z,0
2018-12-11T16:23:09.299Z,0
2018-12-11T16:24:21.591Z,0
2018-12-11T16:25:33.735Z,0
2018-12-11T16:26:45.889Z,0
2018-12-11T16:27:58.148Z,0
2018-12-11T16:29:10.443Z,0
2018-12-11T16:30:22.477Z,0
2018-12-11T16:31:34.726Z,0
2018-12-11T16:32:46.908Z,0
2018-12-11T16:33:59.129Z,0
2018-12-11T16:35:11.333Z,0
2018-12-11T16:36:23.498Z,0
2018-12-11T16:37:35.707Z,0
2018-12-11T16:38:47.818Z,0
2018-12-11T16:40:00.165Z,0
2018-12-11T16:41:12.297Z,0
2018-12-11T16:42:24.505Z,0
2018-12-11T16:43:36.608Z,0
2018-12-11T16:44:48.864Z,0
2018-12-11T16:46:01.068Z,0
2018-12-11T16:47:13.250Z,0
2018-12-11T16:48:29.128Z,0
2018-12-11T16:49:37.580Z,0
2018-12-11T16:50:49.836Z,0
2018-12-11T16:52:02.019Z,0
2018-12-11T16:53:14.319Z,0
2018-12-11T16:54:26.336Z,0
2018-12-11T16:55:38.638Z,0
2018-12-11T16:56:50.796Z,0